Houston, Texas
Traffic Map
Current Weather Conditions
Houston, Texas
Overcast
Overcast
26°
Feels Like: 27°
Wind Chill: 26° Ceiling: 1200
Heat Index: 27° Visibility: 8mi
Dew Point: 24° Wind: 6mph
Humidity: 90% Direction: 60° (ENE)
Pressure: 30.04in Gusts: 0mph
Raw Report DataKIAH 270953Z 06005KT 8SM BKN012 OVC030 26/24 A3004 RMK AO2 SLP171 FRQ LTGIC CB DSNT NW-NE MOV SE T02560239
Traffic Incident Summary
Active as of:
Severity:
Category:
InformationThere was an issue retrieving the traffic information for this location. Please try a different location or try again shortly.
Advertisements
Track Severe Weather on mobile